createdAt,value
2018-12-20T09:39:16.788Z,78.78
2018-12-20T09:44:20.773Z,85.11
2018-12-20T09:49:28.047Z,84.16
2018-12-20T09:54:34.998Z,83.91
2018-12-20T09:59:39.047Z,83.66
2018-12-20T10:10:07.236Z,83.47
2018-12-20T10:15:10.651Z,83.40
2018-12-20T10:20:15.344Z,82.86
2018-12-20T10:25:18.321Z,82.55
2018-12-20T10:30:21.361Z,82.53
2018-12-20T10:35:24.346Z,82.47
2018-12-20T10:40:27.333Z,82.58
2018-12-20T10:45:30.361Z,81.90
2018-12-20T10:50:33.308Z,81.59
2018-12-20T10:55:36.276Z,81.86
2018-12-20T11:00:44.942Z,81.16
2018-12-20T11:05:53.583Z,80.87
2018-12-20T11:11:02.703Z,80.64
2018-12-20T11:16:05.800Z,80.15
2018-12-20T11:21:08.753Z,80.41
2018-12-20T11:26:11.713Z,80.22
2018-12-20T11:31:14.691Z,79.95
2018-12-20T11:36:17.681Z,79.63
2018-12-20T11:41:20.653Z,79.71
2018-12-20T11:51:48.444Z,78.98
2018-12-20T11:56:51.522Z,79.02
2018-12-20T12:01:54.580Z,78.18
2018-12-20T12:06:57.549Z,78.00
2018-12-20T12:12:00.512Z,77.52
2018-12-20T12:22:30.103Z,76.57
2018-12-20T12:27:35.245Z,76.36
2018-12-20T12:32:41.607Z,75.15
2018-12-20T12:37:47.500Z,74.19
2018-12-20T12:42:51.758Z,72.76
2018-12-20T12:48:03.330Z,73.38
2018-12-20T12:58:28.425Z,73.10
2018-12-20T13:03:32.835Z,73.20
2018-12-20T13:08:38.737Z,73.51
2018-12-20T13:13:42.331Z,73.95
2018-12-20T13:24:10.841Z,74.50
2018-12-20T13:29:13.836Z,74.24
2018-12-20T13:34:16.900Z,74.01
2018-12-20T13:39:21.565Z,73.80
2018-12-20T13:44:24.673Z,74.15
2018-12-20T13:49:27.655Z,74.37
2018-12-20T13:54:30.708Z,74.58
2018-12-20T13:59:33.763Z,74.19
2018-12-20T14:04:36.798Z,73.31
2018-12-20T14:09:39.786Z,74.21
2018-12-20T14:14:42.770Z,73.98
2018-12-20T14:19:45.865Z,73.45
2018-12-20T14:30:13.572Z,73.84
2018-12-20T14:40:35.988Z,73.03
2018-12-20T14:51:07.690Z,74.15
2018-12-20T14:56:10.768Z,74.09
2018-12-20T15:01:13.891Z,74.11
2018-12-20T15:06:16.937Z,74.59
2018-12-20T15:11:19.964Z,74.88
2018-12-20T15:16:23.027Z,75.18
2018-12-20T15:21:26.109Z,75.45
2018-12-20T15:26:29.121Z,74.68
2018-12-20T15:31:32.109Z,75.35
2018-12-20T15:36:35.169Z,74.63
2018-12-20T15:41:38.417Z,74.94
2018-12-20T15:46:41.586Z,74.59
2018-12-20T15:51:51.357Z,74.70
2018-12-20T15:56:54.383Z,74.68
2018-12-20T16:01:57.355Z,74.54
2018-12-20T16:07:00.331Z,74.50
2018-12-20T16:12:03.291Z,74.15
2018-12-20T16:17:06.245Z,73.67
2018-12-20T16:22:09.392Z,73.36
2018-12-20T16:27:12.490Z,73.79
2018-12-20T16:32:15.449Z,74.01
2018-12-20T16:37:18.383Z,73.69
2018-12-20T16:42:21.335Z,74.02
2018-12-20T16:47:24.405Z,74.11
2018-12-20T16:52:27.648Z,73.53
2018-12-20T16:57:32.786Z,73.71
2018-12-20T17:02:35.849Z,74.05
2018-12-20T17:07:38.984Z,73.87
2018-12-20T17:12:42.167Z,73.62
2018-12-20T17:17:45.198Z,74.12
2018-12-20T17:22:48.156Z,74.72
2018-12-20T17:33:15.568Z,73.85
2018-12-20T17:38:18.521Z,75.14
2018-12-20T17:43:22.626Z,76.21
2018-12-20T17:48:29.387Z,76.17
2018-12-20T17:53:30.652Z,77.35
2018-12-20T17:58:33.666Z,77.71
2018-12-20T18:03:36.638Z,78.36
2018-12-20T18:08:39.692Z,78.07
2018-12-20T18:13:42.709Z,78.04
2018-12-20T18:18:45.700Z,78.28
2018-12-20T18:23:48.649Z,78.66
2018-12-20T18:28:51.720Z,78.76
2018-12-20T18:33:54.748Z,78.63
2018-12-20T18:38:57.764Z,78.66
2018-12-20T18:44:00.885Z,79.30
2018-12-20T18:49:04.001Z,79.14
2018-12-20T18:59:22.204Z,78.81
2018-12-20T19:04:25.301Z,79.19
2018-12-20T19:09:28.262Z,79.61
2018-12-20T19:14:32.050Z,79.95
2018-12-20T19:19:35.521Z,79.67
2018-12-20T19:24:38.526Z,80.35
2018-12-20T19:29:41.556Z,80.55
2018-12-20T19:34:44.713Z,80.34
2018-12-20T19:39:51.289Z,79.86
2018-12-20T19:44:56.592Z,80.50
2018-12-20T19:50:04.766Z,80.86
2018-12-20T19:55:05.193Z,81.61
2018-12-20T20:00:13.037Z,81.62
2018-12-20T20:10:38.666Z,81.97
2018-12-20T20:15:41.725Z,82.61
2018-12-20T20:20:44.778Z,82.54
2018-12-20T20:25:47.811Z,82.83
2018-12-20T20:30:50.830Z,82.53
2018-12-20T20:35:53.863Z,82.44
2018-12-20T20:40:57.287Z,82.40
2018-12-20T20:46:00.564Z,82.77
2018-12-20T20:51:03.838Z,82.57
2018-12-20T21:01:29.067Z,82.99
2018-12-20T21:06:33.050Z,82.87
2018-12-20T21:17:08.717Z,83.17
2018-12-20T21:22:11.785Z,83.62
2018-12-20T21:27:14.768Z,83.42
2018-12-20T21:32:18.723Z,83.35
2018-12-20T21:37:21.933Z,83.84
2018-12-20T21:42:24.896Z,82.69
2018-12-20T21:47:28.113Z,82.83
2018-12-20T21:52:31.075Z,82.41
2018-12-20T21:57:34.257Z,82.58
2018-12-20T22:02:37.539Z,82.21
2018-12-20T22:07:40.610Z,82.38
2018-12-20T22:18:08.439Z,82.11
2018-12-20T22:23:18.089Z,82.59
2018-12-20T22:28:21.044Z,82.86
2018-12-20T22:33:24.007Z,82.32
2018-12-20T22:38:26.989Z,82.60
2018-12-20T22:43:29.984Z,82.23
2018-12-20T22:48:32.941Z,82.61
2018-12-20T22:53:35.894Z,82.54
2018-12-20T22:58:38.832Z,83.25
2018-12-20T23:03:41.805Z,83.24
2018-12-20T23:08:44.775Z,83.09
2018-12-20T23:13:47.758Z,82.75
2018-12-20T23:18:52.397Z,83.06
2018-12-20T23:23:55.564Z,82.67
2018-12-20T23:28:58.610Z,82.60
2018-12-20T23:39:22.039Z,82.33
2018-12-20T23:49:43.805Z,81.69
2018-12-20T23:54:47.363Z,81.52
2018-12-20T23:59:50.804Z,81.50
